Time;durP1;ratioP1;P1;durP2;ratioP2;P2;SDS_P1;SDS_P2;PMS_P1;PMS_P2;Temp;Humidity;BMP_temperature;BMP_pressure;BME280_temperature;BME280_humidity;BME280_pressure;Samples;Min_cycle;Max_cycle;Signal;HPM_P1;HPM_P2
2021/06/03 00:02:43;;;;;;;;;;;13.80;99.90;;;;;;8327080;28;19945;-64
2021/06/03 00:06:44;;;;;;;;;;;13.70;99.90;;;;;;8326401;28;19918;-64
2021/06/03 00:10:56;;;;;;;;;;;13.70;99.90;;;;;;8308591;28;19964;-63
2021/06/03 00:14:56;;;;;;;;;;;13.60;99.90;;;;;;8308791;28;19910;-63
2021/06/03 00:18:57;;;;;;;;;;;13.70;99.90;;;;;;8326288;28;19924;-64
2021/06/03 00:22:57;;;;;;;;;;;13.70;99.90;;;;;;8326321;28;20405;-64
2021/06/03 00:26:58;;;;;;;;;;;13.60;99.90;;;;;;8325999;28;19999;-64
2021/06/03 00:30:58;;;;;;;;;;;13.60;99.90;;;;;;8326072;28;19915;-64
2021/06/03 00:34:58;;;;;;;;;;;13.60;99.90;;;;;;8326145;28;19983;-64
2021/06/03 00:38:59;;;;;;;;;;;13.70;99.90;;;;;;8325889;28;19913;-64
2021/06/03 00:43:00;;;;;;;;;;;13.60;99.90;;;;;;8308502;28;19909;-64
2021/06/03 00:47:00;;;;;;;;;;;13.70;99.90;;;;;;8308027;28;19917;-64
2021/06/03 00:51:04;;;;;;;;;;;13.60;99.90;;;;;;8325616;28;19909;-64
2021/06/03 00:55:05;;;;;;;;;;;13.50;99.90;;;;;;8325722;28;19909;-64
2021/06/03 00:59:06;;;;;;;;;;;13.50;99.90;;;;;;8327280;28;19913;-64
2021/06/03 01:03:06;;;;;;;;;;;13.50;99.90;;;;;;8336775;28;20104;-64
2021/06/03 01:07:07;;;;;;;;;;;13.60;99.90;;;;;;8318777;28;19971;-64
2021/06/03 01:11:07;;;;;;;;;;;13.50;99.90;;;;;;8336284;28;19915;-64
2021/06/03 01:15:09;;;;;;;;;;;13.40;99.90;;;;;;8336107;28;19988;-64
2021/06/03 01:19:11;;;;;;;;;;;13.40;99.90;;;;;;8336149;28;19920;-64
2021/06/03 01:23:13;;;;;;;;;;;13.50;99.90;;;;;;8336222;28;19909;-64
2021/06/03 01:27:24;;;;;;;;;;;13.70;99.90;;;;;;8336072;28;19909;-64
2021/06/03 01:31:25;;;;;;;;;;;13.70;99.90;;;;;;8335656;28;19910;-64
2021/06/03 01:35:27;;;;;;;;;;;13.60;99.90;;;;;;8336109;28;20318;-64
2021/06/03 01:39:28;;;;;;;;;;;13.50;99.90;;;;;;8318035;28;19913;-64
2021/06/03 01:43:29;;;;;;;;;;;13.60;99.90;;;;;;8336183;28;19916;-63
2021/06/03 01:47:30;;;;;;;;;;;13.60;99.90;;;;;;8335965;28;19952;-63
2021/06/03 01:51:31;;;;;;;;;;;13.60;99.90;;;;;;8335459;28;19943;-63
2021/06/03 01:55:31;;;;;;;;;;;13.80;99.90;;;;;;8328399;28;19992;-63
2021/06/03 01:59:33;;;;;;;;;;;13.70;99.90;;;;;;8302727;28;19913;-64
2021/06/03 02:03:34;;;;;;;;;;;13.70;99.90;;;;;;8294344;28;19916;-63
2021/06/03 02:07:34;;;;;;;;;;;13.70;99.90;;;;;;8335204;28;19917;-64
2021/06/03 02:11:38;;;;;;;;;;;13.50;99.90;;;;;;8332193;28;20019;-63
2021/06/03 02:15:46;;;;;;;;;;;13.50;99.90;;;;;;8330019;28;19917;-63
2021/06/03 02:19:57;;;;;;;;;;;13.30;99.90;;;;;;8330268;28;19939;-63
2021/06/03 02:23:59;;;;;;;;;;;13.30;99.90;;;;;;8330635;28;19917;-65
2021/06/03 02:28:00;;;;;;;;;;;13.60;99.90;;;;;;8330197;28;19913;-63
2021/06/03 02:32:01;;;;;;;;;;;14.00;99.90;;;;;;8330187;28;19920;-63
2021/06/03 02:36:03;;;;;;;;;;;13.70;99.90;;;;;;8329925;28;20427;-63
2021/06/03 02:40:05;;;;;;;;;;;13.70;99.90;;;;;;8329465;28;20394;-63
2021/06/03 02:44:06;;;;;;;;;;;13.60;99.90;;;;;;8329674;28;19916;-63
2021/06/03 02:48:06;;;;;;;;;;;13.80;99.90;;;;;;8329383;28;20367;-63
2021/06/03 02:52:07;;;;;;;;;;;14.10;99.90;;;;;;8329380;28;19920;-63
2021/06/03 02:56:07;;;;;;;;;;;13.80;99.90;;;;;;8329044;28;20701;-63
2021/06/03 03:00:13;;;;;;;;;;;14.00;99.90;;;;;;8327787;28;20429;-64
2021/06/03 03:04:14;;;;;;;;;;;14.30;99.90;;;;;;8328671;28;19932;-63
2021/06/03 03:08:14;;;;;;;;;;;14.20;99.90;;;;;;8328763;28;19924;-64
2021/06/03 03:12:15;;;;;;;;;;;13.90;99.90;;;;;;8328430;28;19919;-63
2021/06/03 03:16:15;;;;;;;;;;;14.10;99.90;;;;;;8328060;28;19956;-63
2021/06/03 03:20:17;;;;;;;;;;;14.00;99.90;;;;;;8328340;28;20070;-63
2021/06/03 03:24:17;;;;;;;;;;;14.00;99.90;;;;;;8327333;28;19974;-63
2021/06/03 03:28:18;;;;;;;;;;;14.10;99.90;;;;;;8328074;28;19909;-63
2021/06/03 03:32:18;;;;;;;;;;;14.40;99.90;;;;;;8328298;28;19928;-63
2021/06/03 03:36:19;;;;;;;;;;;14.70;99.90;;;;;;8328182;28;20318;-63
2021/06/03 03:40:20;;;;;;;;;;;14.60;99.90;;;;;;8327877;28;20465;-63
2021/06/03 03:44:21;;;;;;;;;;;14.70;99.90;;;;;;8328176;28;20314;-64
2021/06/03 03:48:21;;;;;;;;;;;14.80;99.90;;;;;;8327654;28;19996;-64
2021/06/03 03:52:22;;;;;;;;;;;14.80;99.90;;;;;;8327690;28;20298;-63
2021/06/03 03:56:22;;;;;;;;;;;14.80;99.90;;;;;;8327082;28;19909;-64
2021/06/03 04:00:24;;;;;;;;;;;14.80;99.90;;;;;;8326887;28;19913;-63
2021/06/03 04:04:25;;;;;;;;;;;15.00;99.90;;;;;;8327162;28;19917;-63
2021/06/03 04:08:26;;;;;;;;;;;15.10;99.90;;;;;;8326689;28;19924;-63
2021/06/03 04:12:26;;;;;;;;;;;15.10;99.90;;;;;;8326660;28;19909;-63
2021/06/03 04:16:27;;;;;;;;;;;15.10;99.90;;;;;;8325926;28;19913;-64
2021/06/03 04:20:28;;;;;;;;;;;15.10;99.90;;;;;;8326386;28;20410;-64
2021/06/03 04:24:28;;;;;;;;;;;15.20;99.90;;;;;;8308875;28;19909;-63
2021/06/03 04:28:29;;;;;;;;;;;15.30;99.90;;;;;;8326123;28;19955;-63
2021/06/03 04:32:29;;;;;;;;;;;15.50;99.90;;;;;;8327830;28;19913;-64
2021/06/03 04:36:30;;;;;;;;;;;15.70;99.90;;;;;;8325577;28;19913;-64
2021/06/03 04:40:30;;;;;;;;;;;15.80;99.90;;;;;;8325673;28;19913;-64
2021/06/03 04:44:31;;;;;;;;;;;16.00;99.90;;;;;;8325871;28;20363;-63
2021/06/03 04:48:32;;;;;;;;;;;16.10;99.90;;;;;;8325837;28;19916;-64
2021/06/03 04:52:33;;;;;;;;;;;16.20;99.90;;;;;;8325949;28;19910;-64
2021/06/03 04:56:33;;;;;;;;;;;16.40;99.90;;;;;;8326187;28;19951;-64
2021/06/03 05:00:35;;;;;;;;;;;16.40;99.90;;;;;;8341667;28;20438;-66
2021/06/03 05:04:36;;;;;;;;;;;16.70;99.90;;;;;;8329463;28;20431;-67
2021/06/03 05:08:36;;;;;;;;;;;16.90;99.90;;;;;;8342156;28;19917;-67
2021/06/03 05:12:37;;;;;;;;;;;17.30;99.90;;;;;;8319256;28;19967;-67
2021/06/03 05:16:37;;;;;;;;;;;17.70;99.90;;;;;;8340594;28;19917;-66
2021/06/03 05:20:38;;;;;;;;;;;18.10;99.90;;;;;;8333927;28;19944;-67
2021/06/03 05:24:38;;;;;;;;;;;18.50;99.90;;;;;;8340338;28;19909;-67
2021/06/03 05:28:39;;;;;;;;;;;18.60;99.90;;;;;;8341006;28;19915;-66
2021/06/03 05:32:40;;;;;;;;;;;18.70;99.90;;;;;;8335226;28;19913;-66
2021/06/03 05:36:41;;;;;;;;;;;18.60;99.90;;;;;;8340418;28;19992;-66
2021/06/03 05:40:41;;;;;;;;;;;18.50;99.90;;;;;;8340520;28;19992;-69
2021/06/03 05:44:43;;;;;;;;;;;18.80;99.90;;;;;;8343962;28;19912;-66
2021/06/03 05:48:43;;;;;;;;;;;19.10;99.90;;;;;;8336375;28;19912;-67
2021/06/03 05:52:44;;;;;;;;;;;18.90;99.90;;;;;;8349828;28;19963;-67
2021/06/03 05:56:45;;;;;;;;;;;18.70;99.90;;;;;;8358979;28;20437;-68
2021/06/03 06:00:45;;;;;;;;;;;18.80;99.90;;;;;;8327828;28;19913;-67
2021/06/03 06:09:06;;;;;;;;;;;19.20;99.90;;;;;;8351230;28;19924;-68
2021/06/03 06:13:07;;;;;;;;;;;19.30;99.90;;;;;;8336635;28;19913;-68
2021/06/03 06:17:10;;;;;;;;;;;19.50;99.90;;;;;;8332369;28;20383;-69
2021/06/03 06:21:11;;;;;;;;;;;19.50;99.90;;;;;;8334912;28;19932;-69
2021/06/03 06:25:11;;;;;;;;;;;19.60;99.90;;;;;;8363287;28;19909;-70
2021/06/03 06:29:12;;;;;;;;;;;19.60;99.90;;;;;;8318224;28;20356;-69
2021/06/03 06:33:14;;;;;;;;;;;19.70;99.90;;;;;;8328179;28;19959;-69
2021/06/03 06:37:14;;;;;;;;;;;20.20;99.90;;;;;;8308340;28;19920;-69
2021/06/03 06:41:15;;;;;;;;;;;20.60;99.90;;;;;;8331543;28;19913;-69
2021/06/03 06:45:15;;;;;;;;;;;20.80;99.90;;;;;;8313692;28;19924;-68
2021/06/03 06:49:16;;;;;;;;;;;21.10;99.90;;;;;;8328360;28;19917;-70
2021/06/03 06:53:17;;;;;;;;;;;21.30;99.90;;;;;;8310476;28;19909;-69
2021/06/03 06:57:17;;;;;;;;;;;21.30;99.90;;;;;;8310549;28;19982;-69
2021/06/03 07:01:18;;;;;;;;;;;21.40;99.90;;;;;;8313097;28;19968;-69
2021/06/03 07:05:18;;;;;;;;;;;21.40;99.90;;;;;;8350793;28;19920;-69
2021/06/03 07:09:19;;;;;;;;;;;21.60;99.90;;;;;;8328671;28;20376;-69
2021/06/03 07:13:19;;;;;;;;;;;21.90;99.90;;;;;;8311207;28;19916;-69
2021/06/03 07:17:20;;;;;;;;;;;22.30;99.90;;;;;;8308820;28;19917;-68
2021/06/03 07:21:20;;;;;;;;;;;21.90;99.90;;;;;;8332061;28;19913;-68
2021/06/03 07:25:22;;;;;;;;;;;21.50;99.90;;;;;;8341646;28;19948;-68
2021/06/03 07:29:23;;;;;;;;;;;21.20;99.90;;;;;;8358004;28;20290;-68
2021/06/03 07:33:23;;;;;;;;;;;21.10;99.90;;;;;;8327684;28;20000;-68
2021/06/03 07:37:24;;;;;;;;;;;21.10;99.90;;;;;;8333308;28;19997;-66
2021/06/03 07:41:25;;;;;;;;;;;21.00;99.90;;;;;;8349023;28;19913;-68
2021/06/03 07:45:27;;;;;;;;;;;20.60;99.90;;;;;;8327591;28;19932;-68
2021/06/03 07:49:27;;;;;;;;;;;20.80;99.90;;;;;;8308530;28;19928;-67
2021/06/03 07:53:28;;;;;;;;;;;21.50;99.90;;;;;;8327093;28;19956;-67
2021/06/03 07:57:28;;;;;;;;;;;22.20;99.90;;;;;;8309199;28;19921;-67
2021/06/03 08:01:29;;;;;;;;;;;22.60;99.90;;;;;;8326000;28;19913;-68
2021/06/03 08:05:29;;;;;;;;;;;23.00;99.90;;;;;;8326836;28;20394;-68
2021/06/03 08:09:30;;;;;;;;;;;23.00;99.90;;;;;;8325734;28;19991;-69
2021/06/03 08:13:31;;;;;;;;;;;22.50;99.90;;;;;;8329353;28;19921;-67
2021/06/03 08:17:32;;;;;;;;;;;22.60;99.90;;;;;;8341904;28;20359;-68
2021/06/03 08:21:34;;;;;;;;;;;22.80;99.90;;;;;;8353458;28;19913;-67
2021/06/03 08:25:35;;;;;;;;;;;23.10;99.90;;;;;;8340378;28;20011;-68
2021/06/03 08:29:35;;;;;;;;;;;23.10;99.90;;;;;;8330083;28;19998;-68
2021/06/03 08:33:36;;;;;;;;;;;23.50;99.90;;;;;;8308374;28;20280;-67
2021/06/03 08:37:37;;;;;;;;;;;23.50;99.90;;;;;;8333736;28;19913;-68
2021/06/03 08:41:39;;;;;;;;;;;23.50;99.90;;;;;;8328693;28;19917;-68
2021/06/03 08:45:41;;;;;;;;;;;23.70;99.90;;;;;;8317840;28;19917;-67
2021/06/03 08:49:41;;;;;;;;;;;23.70;99.90;;;;;;8317013;28;20007;-68
2021/06/03 08:53:42;;;;;;;;;;;24.20;99.90;;;;;;8322337;28;19917;-68
2021/06/03 08:57:42;;;;;;;;;;;24.20;99.90;;;;;;8337118;28;19935;-69
2021/06/03 09:01:43;;;;;;;;;;;24.20;99.90;;;;;;8319724;28;19944;-69
2021/06/03 09:05:44;;;;;;;;;;;24.40;99.90;;;;;;8323806;28;19991;-68
2021/06/03 09:09:45;;;;;;;;;;;23.90;99.90;;;;;;8324025;28;19913;-67
2021/06/03 09:13:49;;;;;;;;;;;24.00;99.90;;;;;;8306598;28;19917;-67
2021/06/03 09:17:49;;;;;;;;;;;24.60;99.90;;;;;;8324561;28;19932;-69
2021/06/03 09:21:51;;;;;;;;;;;24.30;99.90;;;;;;8328422;28;19912;-69
2021/06/03 09:25:51;;;;;;;;;;;24.60;99.90;;;;;;8335940;28;19956;-69
2021/06/03 09:30:00;;;;;;;;;;;24.80;99.90;;;;;;8331530;28;20546;-70
2021/06/03 09:34:00;;;;;;;;;;;24.90;99.90;;;;;;8329696;28;19917;-68
2021/06/03 09:38:03;;;;;;;;;;;25.30;99.90;;;;;;8316027;28;19924;-69
2021/06/03 09:42:22;;;;;;;;;;;25.20;99.90;;;;;;8320595;28;20008;-69
2021/06/03 09:46:22;;;;;;;;;;;24.90;99.90;;;;;;8331779;28;19913;-69
2021/06/03 09:50:23;;;;;;;;;;;25.20;99.90;;;;;;8330895;28;19920;-71
2021/06/03 09:54:25;;;;;;;;;;;25.60;99.90;;;;;;8331186;28;19925;-69
2021/06/03 09:58:43;;;;;;;;;;;26.70;99.90;;;;;;8330913;28;19967;-69
2021/06/03 10:02:44;;;;;;;;;;;27.80;98.20;;;;;;8330909;28;19909;-69
2021/06/03 10:06:58;;;;;;;;;;;28.00;95.60;;;;;;8330382;28;20337;-69
2021/06/03 10:10:59;;;;;;;;;;;28.00;98.10;;;;;;8312739;28;19936;-69
2021/06/03 10:15:07;;;;;;;;;;;27.20;95.60;;;;;;8330815;28;20684;-69
2021/06/03 10:19:17;;;;;;;;;;;27.20;96.20;;;;;;8330352;28;19943;-69
2021/06/03 10:23:22;;;;;;;;;;;26.90;93.50;;;;;;8321749;28;19951;-68
2021/06/03 10:27:24;;;;;;;;;;;27.10;90.90;;;;;;8307237;28;19968;-69
2021/06/03 10:31:25;;;;;;;;;;;26.60;91.50;;;;;;8297110;28;19909;-69
2021/06/03 10:35:27;;;;;;;;;;;26.90;91.00;;;;;;8320562;28;19968;-69
2021/06/03 10:39:32;;;;;;;;;;;27.10;90.60;;;;;;8321282;28;19923;-69
2021/06/03 10:43:35;;;;;;;;;;;26.80;90.40;;;;;;8320900;28;19920;-68
2021/06/03 10:47:36;;;;;;;;;;;27.30;89.00;;;;;;8326974;28;20497;-68
2021/06/03 10:51:39;;;;;;;;;;;27.30;90.00;;;;;;8341310;28;19960;-68
2021/06/03 10:55:43;;;;;;;;;;;27.90;91.10;;;;;;8331750;28;19948;-69
2021/06/03 10:59:45;;;;;;;;;;;28.30;86.30;;;;;;8313302;28;19931;-67
2021/06/03 11:03:51;;;;;;;;;;;28.30;82.60;;;;;;8334422;28;19978;-68
2021/06/03 11:07:51;;;;;;;;;;;28.50;80.40;;;;;;8328541;28;19917;-67
2021/06/03 11:12:06;;;;;;;;;;;28.70;78.00;;;;;;8335360;28;19920;-69
2021/06/03 11:16:15;;;;;;;;;;;29.60;74.60;;;;;;8338298;28;19913;-67
2021/06/03 11:20:15;;;;;;;;;;;30.40;75.80;;;;;;8338068;28;20526;-67
2021/06/03 11:24:27;;;;;;;;;;;31.50;68.20;;;;;;8333795;28;19913;-66
2021/06/03 11:28:27;;;;;;;;;;;30.50;69.80;;;;;;8337537;28;19913;-69
2021/06/03 11:32:35;;;;;;;;;;;29.80;74.40;;;;;;8327011;28;19992;-67
2021/06/03 11:36:36;;;;;;;;;;;28.80;84.80;;;;;;8321430;28;19974;-67
2021/06/03 11:40:43;;;;;;;;;;;28.30;81.90;;;;;;8340062;28;20510;-67
2021/06/03 11:45:13;;;;;;;;;;;28.60;81.60;;;;;;8341532;28;20429;-67
2021/06/03 11:49:33;;;;;;;;;;;29.50;81.90;;;;;;8321029;28;19971;-67
2021/06/03 11:53:46;;;;;;;;;;;29.20;80.40;;;;;;8325050;28;20323;-68
2021/06/03 11:58:06;;;;;;;;;;;29.40;82.90;;;;;;8331022;28;19920;-67
2021/06/03 12:02:36;;;;;;;;;;;29.30;78.60;;;;;;8326558;28;19913;-66
2021/06/03 12:06:38;;;;;;;;;;;28.30;79.40;;;;;;8308557;28;19924;-68
2021/06/03 12:10:41;;;;;;;;;;;29.00;82.10;;;;;;8313361;28;20007;-67
2021/06/03 12:14:43;;;;;;;;;;;29.30;75.50;;;;;;8311978;28;19949;-67
2021/06/03 12:18:44;;;;;;;;;;;29.00;77.00;;;;;;8318194;28;19947;-68
2021/06/03 12:22:44;;;;;;;;;;;29.40;80.50;;;;;;8334960;28;19975;-68
2021/06/03 12:26:46;;;;;;;;;;;29.70;75.00;;;;;;8341856;28;20372;-66
2021/06/03 12:30:46;;;;;;;;;;;29.40;76.10;;;;;;8327970;28;19920;-67
2021/06/03 12:34:47;;;;;;;;;;;30.80;72.90;;;;;;8328242;28;19913;-66
2021/06/03 12:38:49;;;;;;;;;;;32.10;70.30;;;;;;8325742;28;20010;-66
2021/06/03 12:42:49;;;;;;;;;;;32.00;68.40;;;;;;8322801;28;20007;-66
2021/06/03 12:46:53;;;;;;;;;;;33.70;61.50;;;;;;8334394;28;19913;-65
2021/06/03 12:50:54;;;;;;;;;;;33.90;55.10;;;;;;8324746;28;19936;-66
2021/06/03 12:54:56;;;;;;;;;;;35.70;51.50;;;;;;8359339;28;20410;-66
2021/06/03 12:58:57;;;;;;;;;;;38.00;47.00;;;;;;8359279;28;19983;-66
2021/06/03 13:03:07;;;;;;;;;;;36.70;47.90;;;;;;8335303;28;19963;-66
2021/06/03 13:07:11;;;;;;;;;;;35.30;48.30;;;;;;8326890;28;19928;-66
2021/06/03 13:11:31;;;;;;;;;;;32.80;53.20;;;;;;8352706;28;20003;-66
2021/06/03 13:15:34;;;;;;;;;;;34.20;54.50;;;;;;8334231;28;19955;-68
2021/06/03 13:19:35;;;;;;;;;;;36.90;48.90;;;;;;8333806;28;19982;-68
2021/06/03 13:23:39;;;;;;;;;;;40.80;44.50;;;;;;8336452;28;20371;-64
2021/06/03 13:27:44;;;;;;;;;;;44.50;38.30;;;;;;8327533;28;19915;-65
2021/06/03 13:31:45;;;;;;;;;;;45.20;33.80;;;;;;8325745;28;20411;-65
2021/06/03 13:35:57;;;;;;;;;;;44.00;31.40;;;;;;8325608;28;19989;-65
2021/06/03 13:40:04;;;;;;;;;;;40.20;37.00;;;;;;8307174;28;19921;-65
2021/06/03 13:44:06;;;;;;;;;;;39.00;35.00;;;;;;8325237;28;19925;-64
2021/06/03 13:48:23;;;;;;;;;;;38.30;38.30;;;;;;8324883;28;19952;-65
2021/06/03 13:52:24;;;;;;;;;;;41.80;36.00;;;;;;8324782;28;19960;-66
2021/06/03 13:56:26;;;;;;;;;;;45.80;33.50;;;;;;8312875;28;19913;-65
2021/06/03 14:00:27;;;;;;;;;;;48.20;28.00;;;;;;8327210;28;20453;-66
2021/06/03 14:04:27;;;;;;;;;;;48.90;27.60;;;;;;8307040;28;20000;-66
2021/06/03 14:08:54;;;;;;;;;;;49.70;26.60;;;;;;8327794;28;19925;-66
2021/06/03 14:12:59;;;;;;;;;;;45.40;28.40;;;;;;8309245;28;19917;-65
2021/06/03 14:17:01;;;;;;;;;;;45.30;31.90;;;;;;8332071;28;19912;-67
2021/06/03 14:21:08;;;;;;;;;;;46.30;30.50;;;;;;8347450;28;20345;-65
2021/06/03 14:25:13;;;;;;;;;;;45.30;31.20;;;;;;8350081;28;19917;-65
2021/06/03 14:29:13;;;;;;;;;;;45.20;29.90;;;;;;8316161;28;20438;-64
2021/06/03 14:33:17;;;;;;;;;;;43.70;29.30;;;;;;8330069;28;19924;-64
2021/06/03 14:37:23;;;;;;;;;;;42.20;33.60;;;;;;8337030;28;19914;-65
2021/06/03 14:41:24;;;;;;;;;;;42.90;32.90;;;;;;8319903;28;19920;-64
2021/06/03 14:45:26;;;;;;;;;;;41.00;34.10;;;;;;8338899;28;19913;-64
2021/06/03 14:49:27;;;;;;;;;;;38.30;37.10;;;;;;8318910;28;19914;-64
2021/06/03 14:53:28;;;;;;;;;;;38.40;39.70;;;;;;8328564;28;19913;-64
2021/06/03 14:57:29;;;;;;;;;;;40.20;35.10;;;;;;8333567;28;19927;-64
2021/06/03 15:01:31;;;;;;;;;;;40.60;36.60;;;;;;8329379;28;19910;-63
2021/06/03 15:05:33;;;;;;;;;;;37.70;38.10;;;;;;8327518;28;19917;-63
2021/06/03 15:09:34;;;;;;;;;;;35.10;43.40;;;;;;8327598;28;19909;-63
2021/06/03 15:13:34;;;;;;;;;;;33.50;45.10;;;;;;8326478;28;19915;-63
2021/06/03 15:17:35;;;;;;;;;;;32.60;49.10;;;;;;8307480;28;19913;-63
2021/06/03 15:21:36;;;;;;;;;;;31.90;50.30;;;;;;8326668;28;19916;-63
2021/06/03 15:25:37;;;;;;;;;;;31.70;51.20;;;;;;8328262;28;19909;-64
2021/06/03 15:29:37;;;;;;;;;;;31.60;50.50;;;;;;8328289;28;19909;-63
2021/06/03 15:33:38;;;;;;;;;;;29.80;55.40;;;;;;8328327;28;20403;-63
2021/06/03 15:37:39;;;;;;;;;;;27.40;60.80;;;;;;8327802;28;20290;-63
2021/06/03 15:41:40;;;;;;;;;;;26.40;65.90;;;;;;8309739;28;19916;-62
2021/06/03 15:45:40;;;;;;;;;;;25.80;71.20;;;;;;8327710;28;19992;-63
2021/06/03 15:49:40;;;;;;;;;;;26.00;77.40;;;;;;8327739;28;19952;-63
2021/06/03 15:53:44;;;;;;;;;;;26.20;73.00;;;;;;8328077;28;19932;-63
2021/06/03 15:57:45;;;;;;;;;;;26.60;74.20;;;;;;8309638;28;19913;-63
2021/06/03 16:01:45;;;;;;;;;;;27.30;72.60;;;;;;8309450;28;19974;-63
2021/06/03 16:05:46;;;;;;;;;;;27.00;72.00;;;;;;8326989;28;19967;-63
2021/06/03 16:09:46;;;;;;;;;;;27.90;71.20;;;;;;8326968;28;20016;-63
2021/06/03 16:13:47;;;;;;;;;;;28.50;69.60;;;;;;8326897;28;19909;-63
2021/06/03 16:17:48;;;;;;;;;;;28.70;68.60;;;;;;8326277;28;19913;-63
2021/06/03 16:21:48;;;;;;;;;;;27.20;73.80;;;;;;8326528;28;19968;-63
2021/06/03 16:25:49;;;;;;;;;;;26.50;77.30;;;;;;8326207;28;19909;-63
2021/06/03 16:29:50;;;;;;;;;;;26.60;76.40;;;;;;8325872;28;19909;-63
2021/06/03 16:33:51;;;;;;;;;;;26.70;75.10;;;;;;8309113;28;19913;-63
2021/06/03 16:37:52;;;;;;;;;;;26.10;76.90;;;;;;8327482;28;19913;-63
2021/06/03 16:41:53;;;;;;;;;;;25.50;79.40;;;;;;8327095;28;19928;-63
2021/06/03 16:45:54;;;;;;;;;;;25.50;83.60;;;;;;8337317;28;19917;-63
2021/06/03 16:49:54;;;;;;;;;;;25.20;82.10;;;;;;8331197;28;19921;-63
2021/06/03 16:53:55;;;;;;;;;;;25.10;84.20;;;;;;8343612;28;19995;-63
2021/06/03 16:57:56;;;;;;;;;;;24.90;84.60;;;;;;8345818;28;19924;-63
2021/06/03 17:01:57;;;;;;;;;;;24.10;89.10;;;;;;8327525;28;20405;-62
2021/06/03 17:05:57;;;;;;;;;;;23.90;90.20;;;;;;8333910;28;19917;-63
2021/06/03 17:09:58;;;;;;;;;;;24.00;90.00;;;;;;8336854;28;19917;-63
2021/06/03 17:13:58;;;;;;;;;;;23.70;91.60;;;;;;8330616;28;19917;-63
2021/06/03 17:17:59;;;;;;;;;;;23.40;94.00;;;;;;8310916;28;19957;-63
2021/06/03 17:21:59;;;;;;;;;;;23.20;95.40;;;;;;8324885;28;19909;-62
2021/06/03 17:26:01;;;;;;;;;;;23.30;96.20;;;;;;8341635;28;19923;-62
2021/06/03 17:30:02;;;;;;;;;;;23.30;97.20;;;;;;8359505;28;19916;-63
2021/06/03 17:34:03;;;;;;;;;;;23.40;97.00;;;;;;8345841;28;20406;-62
2021/06/03 17:38:06;;;;;;;;;;;23.80;97.70;;;;;;8323513;28;19921;-63
2021/06/03 17:42:07;;;;;;;;;;;24.00;97.90;;;;;;8321945;28;19913;-62
2021/06/03 17:46:09;;;;;;;;;;;24.00;99.90;;;;;;8313489;28;19909;-63
2021/06/03 17:50:11;;;;;;;;;;;23.40;99.90;;;;;;8314359;28;19964;-63
2021/06/03 17:54:11;;;;;;;;;;;23.10;99.90;;;;;;8323267;28;19963;-62
2021/06/03 17:58:13;;;;;;;;;;;22.90;99.90;;;;;;8329930;28;19917;-63
2021/06/03 18:02:14;;;;;;;;;;;23.00;99.90;;;;;;8327545;28;19921;-63
2021/06/03 18:06:16;;;;;;;;;;;23.10;99.90;;;;;;8308582;28;20291;-62
2021/06/03 18:10:16;;;;;;;;;;;22.80;99.90;;;;;;8326648;28;20363;-62
2021/06/03 18:14:17;;;;;;;;;;;22.70;99.90;;;;;;8328053;28;19963;-63
2021/06/03 18:18:17;;;;;;;;;;;22.50;99.90;;;;;;8326874;28;19917;-63
2021/06/03 18:22:22;;;;;;;;;;;22.40;99.90;;;;;;8327094;28;19935;-63
2021/06/03 18:26:22;;;;;;;;;;;22.40;99.90;;;;;;8326744;28;19913;-63
2021/06/03 18:30:25;;;;;;;;;;;22.60;99.90;;;;;;8325248;28;19917;-63
2021/06/03 18:34:25;;;;;;;;;;;22.80;99.90;;;;;;8307631;28;19924;-63
2021/06/03 18:38:26;;;;;;;;;;;22.80;99.90;;;;;;8306773;28;19936;-62
2021/06/03 18:42:26;;;;;;;;;;;22.70;99.90;;;;;;8306941;28;19915;-62
2021/06/03 18:46:27;;;;;;;;;;;22.60;99.90;;;;;;8324588;28;20335;-62
2021/06/03 18:50:29;;;;;;;;;;;22.40;99.90;;;;;;8333015;28;19916;-63
2021/06/03 18:54:29;;;;;;;;;;;22.30;99.90;;;;;;8340730;28;19908;-63
2021/06/03 18:58:30;;;;;;;;;;;22.20;99.90;;;;;;8331848;28;20035;-63
2021/06/03 19:02:30;;;;;;;;;;;22.20;99.90;;;;;;8340695;28;20654;-63
2021/06/03 19:06:31;;;;;;;;;;;22.30;99.90;;;;;;8337507;28;20325;-63
2021/06/03 19:10:33;;;;;;;;;;;22.20;99.90;;;;;;8323357;28;19913;-63
2021/06/03 19:14:33;;;;;;;;;;;22.20;99.90;;;;;;8324041;28;19921;-63
2021/06/03 19:18:34;;;;;;;;;;;22.10;99.90;;;;;;8319333;28;19987;-63
2021/06/03 19:22:35;;;;;;;;;;;22.00;99.90;;;;;;8340028;28;19919;-63
2021/06/03 19:26:37;;;;;;;;;;;21.90;99.90;;;;;;8340165;28;19913;-63
2021/06/03 19:30:37;;;;;;;;;;;21.70;99.90;;;;;;8345442;28;20295;-63
2021/06/03 19:34:38;;;;;;;;;;;21.50;99.90;;;;;;8331314;28;19919;-63
2021/06/03 19:38:38;;;;;;;;;;;21.50;99.90;;;;;;8324052;28;19976;-63
2021/06/03 19:42:40;;;;;;;;;;;21.40;99.90;;;;;;8317571;28;19928;-63
2021/06/03 19:46:41;;;;;;;;;;;21.00;99.90;;;;;;8294947;28;20401;-63
2021/06/03 19:50:46;;;;;;;;;;;20.80;99.90;;;;;;8311066;28;19913;-63
2021/06/03 19:54:47;;;;;;;;;;;20.60;99.90;;;;;;8327456;28;20371;-62
2021/06/03 19:58:47;;;;;;;;;;;20.50;99.90;;;;;;8294149;28;19924;-63
2021/06/03 20:02:48;;;;;;;;;;;20.70;99.90;;;;;;8319688;28;19917;-63
2021/06/03 20:06:49;;;;;;;;;;;20.40;99.90;;;;;;8311663;28;23011;-62
2021/06/03 20:10:51;;;;;;;;;;;20.40;99.90;;;;;;8302304;28;20328;-63
2021/06/03 20:14:51;;;;;;;;;;;20.40;99.90;;;;;;8322814;28;20004;-63
2021/06/03 20:18:52;;;;;;;;;;;20.10;99.90;;;;;;8338587;28;20373;-62
2021/06/03 20:22:52;;;;;;;;;;;20.30;99.90;;;;;;8336129;28;19970;-62
2021/06/03 20:26:53;;;;;;;;;;;20.10;99.90;;;;;;8331473;28;19921;-63
2021/06/03 20:30:54;;;;;;;;;;;20.00;99.90;;;;;;8333110;28;19923;-62
2021/06/03 20:34:54;;;;;;;;;;;19.70;99.90;;;;;;8335418;28;19916;-62
2021/06/03 20:38:55;;;;;;;;;;;19.80;99.90;;;;;;8329058;28;20031;-63
2021/06/03 20:42:55;;;;;;;;;;;20.10;99.90;;;;;;8316414;28;19924;-62
2021/06/03 20:46:56;;;;;;;;;;;19.80;99.90;;;;;;8332886;28;19967;-62
2021/06/03 20:50:58;;;;;;;;;;;19.50;99.90;;;;;;8321712;28;19913;-63
2021/06/03 20:54:59;;;;;;;;;;;19.60;99.90;;;;;;8334156;28;19921;-63
2021/06/03 20:58:59;;;;;;;;;;;19.40;99.90;;;;;;8323652;28;19944;-64
2021/06/03 21:03:00;;;;;;;;;;;19.30;99.90;;;;;;8317962;28;19939;-64
2021/06/03 21:07:01;;;;;;;;;;;19.40;99.90;;;;;;8310509;28;19917;-63
2021/06/03 21:11:01;;;;;;;;;;;19.30;99.90;;;;;;8336371;28;20340;-63
2021/06/03 21:15:08;;;;;;;;;;;19.60;99.90;;;;;;8329438;28;20708;-63
2021/06/03 21:19:08;;;;;;;;;;;19.60;99.90;;;;;;8325219;28;20276;-63
2021/06/03 21:23:09;;;;;;;;;;;19.40;99.90;;;;;;8327634;28;19917;-63
2021/06/03 21:27:09;;;;;;;;;;;19.50;99.90;;;;;;8328073;28;19909;-63
2021/06/03 21:31:10;;;;;;;;;;;19.20;99.90;;;;;;8308056;28;19962;-63
2021/06/03 21:35:11;;;;;;;;;;;19.20;99.90;;;;;;8308325;28;20004;-63
2021/06/03 21:39:12;;;;;;;;;;;19.10;99.90;;;;;;8308365;28;19913;-63
2021/06/03 21:43:13;;;;;;;;;;;18.90;99.90;;;;;;8326846;28;19983;-63
2021/06/03 21:47:15;;;;;;;;;;;18.80;99.90;;;;;;8325552;28;19917;-63
2021/06/03 21:51:15;;;;;;;;;;;18.80;99.90;;;;;;8311618;28;19964;-64
2021/06/03 21:55:17;;;;;;;;;;;18.80;99.90;;;;;;8329281;28;19956;-63
2021/06/03 21:59:17;;;;;;;;;;;19.20;99.90;;;;;;8328494;28;19942;-63
2021/06/03 22:03:25;;;;;;;;;;;19.00;99.90;;;;;;8329090;28;19935;-63
2021/06/03 22:07:26;;;;;;;;;;;19.10;99.90;;;;;;8330046;28;19917;-63
2021/06/03 22:11:27;;;;;;;;;;;18.70;99.90;;;;;;8329385;28;19916;-63
2021/06/03 22:15:27;;;;;;;;;;;18.90;99.90;;;;;;8330148;28;19920;-63
2021/06/03 22:19:28;;;;;;;;;;;18.90;99.90;;;;;;8329572;28;19948;-63
2021/06/03 22:23:28;;;;;;;;;;;18.70;99.90;;;;;;8329647;28;20592;-63
2021/06/03 22:27:29;;;;;;;;;;;18.40;99.90;;;;;;8328899;28;20402;-64
2021/06/03 22:31:29;;;;;;;;;;;18.10;99.90;;;;;;8328479;28;19917;-63
2021/06/03 22:35:30;;;;;;;;;;;18.00;99.90;;;;;;8327736;28;19913;-63
2021/06/03 22:39:31;;;;;;;;;;;17.90;99.90;;;;;;8329107;28;19928;-63
2021/06/03 22:43:31;;;;;;;;;;;18.00;99.90;;;;;;8328788;28;19909;-63
2021/06/03 22:47:32;;;;;;;;;;;18.30;99.90;;;;;;8328756;28;19924;-63
2021/06/03 22:51:36;;;;;;;;;;;18.30;99.90;;;;;;8328645;28;19941;-63
2021/06/03 22:55:37;;;;;;;;;;;18.10;99.90;;;;;;8311869;28;20000;-63
2021/06/03 22:59:38;;;;;;;;;;;17.90;99.90;;;;;;8329886;28;19944;-63
2021/06/03 23:03:39;;;;;;;;;;;17.90;99.90;;;;;;8310078;28;19913;-64
2021/06/03 23:07:40;;;;;;;;;;;17.70;99.90;;;;;;8327980;28;20390;-63
2021/06/03 23:11:42;;;;;;;;;;;17.50;99.90;;;;;;8308042;28;19964;-63
2021/06/03 23:15:43;;;;;;;;;;;17.40;99.90;;;;;;8326625;28;19916;-63
2021/06/03 23:19:43;;;;;;;;;;;17.50;99.90;;;;;;8328174;28;20007;-63
2021/06/03 23:23:45;;;;;;;;;;;17.50;99.90;;;;;;8328070;28;20008;-63
2021/06/03 23:27:45;;;;;;;;;;;17.60;99.90;;;;;;8309967;28;20532;-63
2021/06/03 23:31:48;;;;;;;;;;;17.30;99.90;;;;;;8309349;28;19916;-63